Time;durP1;ratioP1;P1;durP2;ratioP2;P2;SDS_P1;SDS_P2;PMS_P1;PMS_P2;Temp;Humidity;BMP_temperature;BMP_pressure;BME280_temperature;BME280_humidity;BME280_pressure;Samples;Min_cycle;Max_cycle;Signal;HPM_P1;HPM_P2
2022/01/27 00:05:03;;;;;;;5.37;4.53;;;;;;;2.45;100.00;101539.75;5070845;28;20170;-73
2022/01/27 00:07:28;;;;;;;2.80;2.70;;;;;;;2.45;100.00;101523.56;5069748;28;20185;-73
2022/01/27 00:10:11;;;;;;;1.90;1.80;;;;;;;2.48;100.00;101519.63;5070942;28;20163;-73
2022/01/27 00:12:37;;;;;;;3.93;3.73;;;;;;;2.50;100.00;101514.81;5070977;28;20630;-73
2022/01/27 00:15:10;;;;;;;1.40;1.33;;;;;;;2.52;100.00;101531.56;5069342;28;20274;-73
2022/01/27 00:17:41;;;;;;;3.77;3.23;;;;;;;2.53;100.00;101514.34;5069326;28;20233;-73
2022/01/27 00:20:07;;;;;;;2.90;2.53;;;;;;;2.53;100.00;101506.25;5070804;28;20170;-72
2022/01/27 00:22:33;;;;;;;4.90;4.43;;;;;;;2.54;100.00;101503.31;5068106;28;20328;-73
2022/01/27 00:24:58;;;;;;;5.83;4.17;;;;;;;2.54;100.00;101494.41;5074714;28;20471;-73
2022/01/27 00:27:24;;;;;;;5.67;3.43;;;;;;;2.54;100.00;101489.81;5079931;28;20170;-73
2022/01/27 00:29:49;;;;;;;6.23;4.50;;;;;;;2.54;100.00;101505.19;5080774;28;20706;-73
2022/01/27 00:32:14;;;;;;;13.03;4.17;;;;;;;2.55;100.00;101501.44;5070529;28;20178;-72
2022/01/27 00:34:40;;;;;;;4.43;4.10;;;;;;;2.55;100.00;101487.94;5070474;28;20182;-73
2022/01/27 00:37:06;;;;;;;7.47;4.53;;;;;;;2.54;100.00;101484.44;5070459;28;20202;-73
2022/01/27 00:39:32;;;;;;;1.33;1.33;;;;;;;2.54;100.00;101487.13;5070990;28;20235;-73
2022/01/27 00:41:57;;;;;;;1.90;1.60;;;;;;;2.54;100.00;101479.03;5070454;28;20825;-73
2022/01/27 00:44:23;;;;;;;6.30;5.17;;;;;;;2.54;100.00;101486.31;5069249;28;20780;-73
2022/01/27 00:46:48;;;;;;;4.83;4.37;;;;;;;2.51;100.00;101468.72;5070306;28;20735;-73
2022/01/27 00:49:14;;;;;;;6.97;5.37;;;;;;;2.52;100.00;101466.84;5070322;28;20170;-73
2022/01/27 00:51:43;;;;;;;3.53;3.23;;;;;;;2.53;100.00;101476.56;5070418;28;20626;-73
2022/01/27 00:54:21;;;;;;;1.73;1.63;;;;;;;2.53;100.00;101474.69;5069145;28;20197;-73
2022/01/27 00:57:38;;;;;;;9.87;3.23;;;;;;;2.56;100.00;101484.19;5070239;28;20303;-73
2022/01/27 00:59:47;;;;;;;2.07;1.90;;;;;;;2.54;100.00;101479.03;5067072;28;20210;-73
2022/01/27 01:02:20;;;;;;;4.27;2.63;;;;;;;2.57;100.00;101477.75;5070345;28;20170;-73
2022/01/27 01:04:55;;;;;;;2.77;2.37;;;;;;;2.57;100.00;101488.53;5068800;28;20209;-73
2022/01/27 01:07:21;;;;;;;2.30;2.20;;;;;;;2.58;100.00;101460.50;5069004;28;20455;-72
2022/01/27 01:15:58;;;;;;;4.50;3.93;;;;;;;2.57;100.00;101445.38;5070139;28;20776;-73
2022/01/27 01:19:05;;;;;;;2.20;2.00;;;;;;;2.60;100.00;101434.97;5064998;28;20730;-73
2022/01/27 01:34:28;;;;;;;3.80;2.90;;;;;;;2.63;100.00;101417.47;5071226;28;20173;-73
2022/01/27 01:36:56;;;;;;;5.77;5.17;;;;;;;2.63;100.00;101415.59;5073250;28;20885;-72
2022/01/27 01:39:24;;;;;;;8.03;5.17;;;;;;;2.62;100.00;101416.66;5073447;28;20206;-73
2022/01/27 01:41:50;;;;;;;5.83;5.00;;;;;;;2.64;100.00;101416.44;5072006;28;20507;-73
2022/01/27 01:44:15;;;;;;;4.53;4.03;;;;;;;2.67;100.00;101418.66;5074005;28;20250;-73
2022/01/27 01:46:41;;;;;;;7.33;5.43;;;;;;;2.67;100.00;101415.94;5072034;28;20174;-73
2022/01/27 01:49:06;;;;;;;3.73;3.43;;;;;;;2.67;100.00;101397.88;5073468;28;20206;-73
2022/01/27 01:51:34;;;;;;;3.97;3.70;;;;;;;2.68;100.00;101391.44;5073462;28;20260;-73
2022/01/27 01:54:00;;;;;;;12.60;3.37;;;;;;;2.68;100.00;101377.94;5073268;28;20166;-73
2022/01/27 01:56:26;;;;;;;2.83;2.63;;;;;;;2.68;100.00;101361.75;5073078;28;20759;-73
2022/01/27 01:58:52;;;;;;;5.47;5.03;;;;;;;2.67;100.00;101364.69;5073127;28;20178;-73
2022/01/27 02:01:18;;;;;;;5.67;4.23;;;;;;;2.68;100.00;101350.16;5073225;28;20678;-73
2022/01/27 02:03:45;;;;;;;4.40;3.53;;;;;;;2.68;100.00;101348.25;5071744;28;20425;-73
2022/01/27 02:06:19;;;;;;;12.10;8.10;;;;;;;2.65;100.00;101350.63;5073182;28;20212;-73
2022/01/27 02:09:07;;;;;;;12.30;5.50;;;;;;;2.61;100.00;101339.50;5073095;28;20417;-73
2022/01/27 02:19:54;;;;;;;8.47;7.67;;;;;;;2.55;100.00;101324.25;5073069;28;20468;-73
2022/01/27 02:22:21;;;;;;;10.63;4.60;;;;;;;2.56;100.00;101327.75;5071543;28;20416;-73
2022/01/27 02:24:47;;;;;;;18.43;13.67;;;;;;;2.53;100.00;101304.78;5072633;28;20429;-73
2022/01/27 02:27:14;;;;;;;9.40;8.23;;;;;;;2.52;100.00;101330.09;5071142;28;20206;-73
2022/01/27 02:29:40;;;;;;;10.17;7.77;;;;;;;2.51;100.00;101315.00;5071147;28;20178;-73
2022/01/27 02:32:06;;;;;;;9.40;7.93;;;;;;;2.50;100.00;101310.66;5072554;28;20174;-73
2022/01/27 02:34:32;;;;;;;19.00;10.00;;;;;;;2.50;100.00;101293.66;5071186;28;20436;-73
2022/01/27 02:36:57;;;;;;;14.00;9.70;;;;;;;2.50;100.00;101289.06;5071043;28;20536;-73
2022/01/27 02:39:23;;;;;;;12.13;9.73;;;;;;;2.51;100.00;101290.72;5072363;28;20297;-73
2022/01/27 02:41:48;;;;;;;5.67;5.10;;;;;;;2.51;100.00;101298.81;5072369;28;20170;-73
2022/01/27 02:44:26;;;;;;;15.23;8.33;;;;;;;2.51;100.00;101296.09;5072634;28;20183;-73
2022/01/27 02:46:52;;;;;;;20.83;12.47;;;;;;;2.52;100.00;101302.31;5071451;28;20174;-73
2022/01/27 02:49:18;;;;;;;9.47;8.57;;;;;;;2.52;100.00;101294.22;5072578;28;20192;-73
2022/01/27 02:51:43;;;;;;;11.17;9.87;;;;;;;2.53;100.00;101312.06;5081471;28;20171;-73
2022/01/27 02:54:09;;;;;;;10.00;9.13;;;;;;;2.55;100.00;101318.03;5077367;28;20478;-72
2022/01/27 02:56:34;;;;;;;21.77;13.83;;;;;;;2.56;100.00;101296.22;5073434;28;20281;-73
2022/01/27 02:59:00;;;;;;;19.37;11.50;;;;;;;2.57;100.00;101314.03;5072719;28;20688;-72
2022/01/27 03:01:25;;;;;;;28.70;16.97;;;;;;;2.59;100.00;101317.31;5072168;28;20575;-73
2022/01/27 03:03:50;;;;;;;37.10;22.10;;;;;;;2.62;100.00;101324.94;5072208;28;20257;-73
2022/01/27 03:06:16;;;;;;;31.13;16.17;;;;;;;2.64;100.00;101301.25;5070690;28;20269;-72
2022/01/27 03:08:41;;;;;;;17.20;11.37;;;;;;;2.63;100.00;101318.50;5072121;28;20174;-72
2022/01/27 03:11:12;;;;;;;38.80;22.93;;;;;;;2.63;100.00;101305.00;5071935;28;20637;-73
2022/01/27 03:13:40;;;;;;;18.07;12.43;;;;;;;2.62;100.00;101299.84;5071964;28;20225;-73
2022/01/27 03:16:08;;;;;;;25.23;18.27;;;;;;;2.59;100.00;101309.22;5070564;28;20467;-73
2022/01/27 03:18:33;;;;;;;21.93;14.20;;;;;;;2.59;100.00;101286.81;5071893;28;20416;-72
2022/01/27 03:20:58;;;;;;;16.77;13.47;;;;;;;2.58;100.00;101307.56;5071777;28;20440;-73
2022/01/27 03:23:24;;;;;;;21.07;14.93;;;;;;;2.57;100.00;101272.75;5071793;28;20191;-72
2022/01/27 03:25:49;;;;;;;15.77;10.03;;;;;;;2.56;100.00;101281.91;5071333;28;20174;-73
2022/01/27 03:28:15;;;;;;;25.13;17.17;;;;;;;2.55;100.00;101273.00;5070347;28;20182;-72
2022/01/27 03:30:41;;;;;;;15.53;13.13;;;;;;;2.55;100.00;101280.25;5071798;28;20167;-73
2022/01/27 03:33:07;;;;;;;27.73;18.80;;;;;;;2.51;100.00;101271.84;5071540;28;20240;-73
2022/01/27 03:35:32;;;;;;;12.90;10.70;;;;;;;2.50;100.00;101299.88;5071357;28;20254;-73
2022/01/27 03:37:57;;;;;;;12.47;11.20;;;;;;;2.48;100.00;101306.56;5070096;28;20202;-72
2022/01/27 03:40:23;;;;;;;22.00;14.40;;;;;;;2.48;100.00;101290.38;5071426;28;20179;-73
2022/01/27 03:43:02;;;;;;;16.23;13.87;;;;;;;2.47;100.00;101275.25;5071327;28;20209;-73
2022/01/27 03:45:28;;;;;;;31.37;21.70;;;;;;;2.46;100.00;101281.66;5071149;28;20228;-73
2022/01/27 03:47:53;;;;;;;16.80;11.97;;;;;;;2.47;100.00;101288.72;5069980;28;20421;-73
2022/01/27 03:50:18;;;;;;;19.03;12.73;;;;;;;2.47;100.00;101294.94;5069867;28;20658;-73
2022/01/27 03:52:44;;;;;;;26.43;16.87;;;;;;;2.47;100.00;101296.81;5071212;28;20598;-73
2022/01/27 03:55:09;;;;;;;32.80;18.97;;;;;;;2.47;100.00;101269.84;5071000;28;20178;-73
2022/01/27 03:57:35;;;;;;;13.80;10.17;;;;;;;2.45;100.00;101274.63;5070519;28;20210;-73
2022/01/27 04:00:00;;;;;;;27.60;17.67;;;;;;;2.45;100.00;101286.25;5069277;28;20265;-73
2022/01/27 04:02:25;;;;;;;26.57;17.07;;;;;;;2.45;100.00;101277.34;5071134;28;20699;-73
2022/01/27 04:04:51;;;;;;;23.17;17.50;;;;;;;2.43;100.00;101265.97;5070840;28;20210;-72
2022/01/27 04:07:16;;;;;;;13.97;9.23;;;;;;;2.41;100.00;101268.09;5070923;28;20174;-73
2022/01/27 04:09:41;;;;;;;14.17;12.87;;;;;;;2.42;100.00;101250.84;5070981;28;20171;-73
2022/01/27 04:12:07;;;;;;;26.30;15.07;;;;;;;2.42;100.00;101245.47;5069621;28;20170;-72
2022/01/27 04:14:33;;;;;;;25.33;14.53;;;;;;;2.39;100.00;101261.06;5070748;28;20228;-73
2022/01/27 04:16:58;;;;;;;20.30;14.27;;;;;;;2.38;100.00;101261.31;5069383;28;20256;-73
2022/01/27 04:19:23;;;;;;;23.97;15.50;;;;;;;2.34;100.00;101242.09;5070688;28;20198;-73
2022/01/27 04:21:49;;;;;;;26.33;19.03;;;;;;;2.32;100.00;101259.56;5070778;28;20232;-73
2022/01/27 04:24:16;;;;;;;23.73;13.63;;;;;;;2.30;100.00;101219.34;5069386;28;20187;-73
2022/01/27 04:26:46;;;;;;;27.67;14.23;;;;;;;2.30;100.00;101224.72;5070377;28;20254;-74
2022/01/27 04:29:13;;;;;;;4.67;3.70;;;;;;;2.30;100.00;101221.22;5070738;28;20166;-73
2022/01/27 04:31:41;;;;;;;15.03;12.70;;;;;;;2.27;100.00;101222.50;5069186;28;20175;-73
2022/01/27 04:34:07;;;;;;;23.93;14.00;;;;;;;2.27;100.00;101244.06;5069364;28;20419;-73
2022/01/27 04:36:34;;;;;;;11.00;9.07;;;;;;;2.27;100.00;101244.06;5070334;28;20832;-74
2022/01/27 04:41:40;;;;;;;27.23;15.47;;;;;;;2.24;100.00;101228.38;5070705;28;20416;-73
2022/01/27 04:44:29;;;;;;;17.80;12.93;;;;;;;2.22;100.00;101216.19;5070552;28;20170;-73
2022/01/27 04:47:16;;;;;;;13.63;11.17;;;;;;;2.21;100.00;101198.38;5070341;28;20495;-74
2022/01/27 04:49:42;;;;;;;22.10;14.53;;;;;;;2.20;100.00;101204.84;5070546;28;20464;-73
2022/01/27 04:52:09;;;;;;;20.43;14.03;;;;;;;2.19;100.00;101184.34;5069222;28;20181;-73
2022/01/27 04:54:42;;;;;;;6.63;6.03;;;;;;;2.20;100.00;101189.47;5068996;28;20504;-73
2022/01/27 04:57:08;;;;;;;8.30;6.70;;;;;;;2.19;100.00;101184.34;5070330;28;20233;-74
2022/01/27 04:59:39;;;;;;;22.13;13.83;;;;;;;2.19;100.00;101179.75;5070255;28;20467;-73
2022/01/27 05:02:11;;;;;;;19.57;10.70;;;;;;;2.17;100.00;101187.28;5070541;28;20169;-73
2022/01/27 05:04:41;;;;;;;13.73;9.50;;;;;;;2.14;100.00;101155.38;5069242;28;20429;-73
2022/01/27 05:07:07;;;;;;;22.17;14.67;;;;;;;2.16;100.00;101155.94;5070258;28;20420;-73
2022/01/27 05:09:33;;;;;;;22.67;11.30;;;;;;;2.15;100.00;101138.16;5071397;28;20181;-73
2022/01/27 05:12:10;;;;;;;5.73;5.13;;;;;;;2.16;100.00;101115.53;5072894;28;20220;-73
2022/01/27 05:14:35;;;;;;;33.20;13.07;;;;;;;2.19;100.00;101141.22;5072978;28;20166;-73
2022/01/27 05:17:01;;;;;;;17.53;12.33;;;;;;;2.18;100.00;101143.09;5073923;28;20467;-73
2022/01/27 05:19:26;;;;;;;15.07;9.47;;;;;;;2.17;100.00;101144.16;5074003;28;20175;-74
2022/01/27 05:21:52;;;;;;;20.47;11.47;;;;;;;2.14;100.00;101123.03;5072801;28;20261;-73
2022/01/27 05:24:19;;;;;;;7.37;5.60;;;;;;;2.12;100.00;101121.63;5073788;28;20190;-73
2022/01/27 05:26:45;;;;;;;9.33;5.47;;;;;;;2.09;100.00;101104.88;5073802;28;20568;-73
2022/01/27 05:29:10;;;;;;;6.77;4.90;;;;;;;2.08;100.00;101111.34;5073918;28;20262;-73
2022/01/27 05:31:38;;;;;;;7.97;7.20;;;;;;;2.12;100.00;101098.19;5073661;28;20181;-73
2022/01/27 05:34:04;;;;;;;14.27;6.47;;;;;;;2.12;100.00;101103.59;5071287;28;20630;-74
2022/01/27 05:36:30;;;;;;;21.30;12.47;;;;;;;2.12;100.00;101108.97;5085792;28;20433;-74
2022/01/27 05:38:55;;;;;;;23.77;14.90;;;;;;;2.12;100.00;101092.81;5082831;28;20431;-73
2022/01/27 05:41:21;;;;;;;32.60;15.60;;;;;;;2.12;100.00;101076.63;5077844;28;20662;-74
2022/01/27 05:43:46;;;;;;;11.23;8.00;;;;;;;2.13;100.00;101099.84;5072256;28;20412;-73
2022/01/27 05:46:12;;;;;;;19.00;12.50;;;;;;;2.14;100.00;101055.66;5073295;28;20460;-74
2022/01/27 05:48:37;;;;;;;16.13;7.50;;;;;;;2.15;100.00;101070.75;5073457;28;20202;-73
2022/01/27 05:51:04;;;;;;;14.57;11.43;;;;;;;2.16;100.00;101056.22;5073601;28;20896;-73
2022/01/27 05:53:30;;;;;;;25.50;15.40;;;;;;;2.18;100.00;101054.13;5073364;28;20506;-73
2022/01/27 05:55:57;;;;;;;11.03;9.37;;;;;;;2.19;100.00;101025.31;5071888;28;20282;-73
2022/01/27 05:58:22;;;;;;;9.30;7.63;;;;;;;2.20;100.00;101043.94;5071975;28;20206;-73
2022/01/27 06:00:48;;;;;;;19.13;12.03;;;;;;;2.22;100.00;101041.81;5073191;28;20773;-73
2022/01/27 06:03:13;;;;;;;25.10;14.47;;;;;;;2.21;100.00;101032.09;5071966;28;20654;-74
2022/01/27 06:05:39;;;;;;;8.90;7.57;;;;;;;2.23;100.00;101029.13;5071626;28;20227;-74
2022/01/27 06:08:04;;;;;;;32.27;15.27;;;;;;;2.25;100.00;101041.31;5071878;28;20580;-73
2022/01/27 06:10:30;;;;;;;23.30;13.97;;;;;;;2.27;100.00;101025.72;5071918;28;20626;-74
2022/01/27 06:12:56;;;;;;;23.53;15.53;;;;;;;2.28;100.00;101007.66;5073065;28;20639;-73
2022/01/27 06:15:23;;;;;;;15.90;11.27;;;;;;;2.29;100.00;100995.81;5071470;28;20648;-73
2022/01/27 06:17:49;;;;;;;28.00;15.87;;;;;;;2.32;100.00;101003.44;5072788;28;20209;-73
2022/01/27 06:20:15;;;;;;;12.87;11.13;;;;;;;2.32;100.00;101020.44;5071474;28;20175;-74
2022/01/27 06:22:41;;;;;;;28.50;18.40;;;;;;;2.33;100.00;101024.75;5071936;28;20248;-73
2022/01/27 06:25:07;;;;;;;27.47;15.67;;;;;;;2.33;100.00;101022.06;5071281;28;20458;-73
2022/01/27 06:27:33;;;;;;;19.00;14.23;;;;;;;2.33;100.00;101019.38;5072461;28;20231;-73
2022/01/27 06:29:58;;;;;;;23.93;13.30;;;;;;;2.35;100.00;101016.44;5071637;28;20475;-73
2022/01/27 06:32:23;;;;;;;18.10;14.47;;;;;;;2.38;100.00;101016.75;5073028;28;20181;-73
2022/01/27 06:34:49;;;;;;;7.87;7.03;;;;;;;2.40;100.00;101021.91;5072740;28;20217;-73
2022/01/27 06:37:14;;;;;;;12.17;8.10;;;;;;;2.41;100.00;101030.81;5072700;28;20205;-74
2022/01/27 06:39:40;;;;;;;16.07;9.60;;;;;;;2.43;100.00;101013.31;5071347;28;20178;-74
2022/01/27 06:42:07;;;;;;;26.90;17.00;;;;;;;2.42;100.00;101033.25;5072636;28;20186;-73
2022/01/27 06:44:33;;;;;;;31.47;13.90;;;;;;;2.44;100.00;101049.19;5072845;28;20261;-74
2022/01/27 06:46:59;;;;;;;9.40;8.10;;;;;;;2.44;100.00;101043.78;5072432;28;20211;-73
2022/01/27 06:49:24;;;;;;;14.57;9.50;;;;;;;2.46;100.00;101042.50;5071178;28;20508;-73
2022/01/27 06:51:50;;;;;;;7.87;6.77;;;;;;;2.48;100.00;101021.50;5072419;28;20189;-73
2022/01/27 06:54:16;;;;;;;7.50;6.33;;;;;;;2.48;100.00;101055.75;5071232;28;20175;-73
2022/01/27 06:56:43;;;;;;;8.37;7.53;;;;;;;2.46;100.00;101022.78;5072094;28;20749;-73
2022/01/27 06:59:08;;;;;;;13.47;7.80;;;;;;;2.43;100.00;101045.66;5072302;28;20258;-74
2022/01/27 07:01:34;;;;;;;18.23;9.37;;;;;;;2.41;100.00;101036.19;5072176;28;20262;-73
2022/01/27 07:03:59;;;;;;;7.20;6.20;;;;;;;2.37;100.00;101052.88;5070797;28;20183;-73
2022/01/27 07:06:25;;;;;;;9.40;6.87;;;;;;;2.34;100.00;101050.66;5070684;28;20185;-74
2022/01/27 07:08:50;;;;;;;9.90;8.27;;;;;;;2.30;100.00;101041.41;5071980;28;20178;-74
2022/01/27 07:11:15;;;;;;;9.23;7.63;;;;;;;2.27;100.00;101038.38;5070390;28;20456;-73
2022/01/27 07:13:41;;;;;;;10.10;8.73;;;;;;;2.26;100.00;101029.47;5071879;28;20189;-73
2022/01/27 07:16:10;;;;;;;8.90;6.60;;;;;;;2.26;100.00;101028.66;5071745;28;20206;-74
2022/01/27 07:18:36;;;;;;;20.77;10.13;;;;;;;2.27;100.00;101016.81;5070405;28;20206;-74
2022/01/27 07:21:05;;;;;;;4.33;3.97;;;;;;;2.29;100.00;101022.78;5070444;28;20214;-73
2022/01/27 07:23:31;;;;;;;10.53;9.23;;;;;;;2.31;100.00;101021.47;5071557;28;20233;-74
2022/01/27 07:25:56;;;;;;;18.80;14.30;;;;;;;2.30;100.00;100998.25;5069851;28;20186;-74
2022/01/27 07:28:22;;;;;;;10.90;8.00;;;;;;;2.33;100.00;100997.81;5071533;28;20692;-73
2022/01/27 07:30:47;;;;;;;12.53;8.27;;;;;;;2.35;100.00;100984.06;5071789;28;20213;-74
2022/01/27 07:33:13;;;;;;;17.17;12.23;;;;;;;2.40;100.00;100997.63;5070183;28;20622;-73
2022/01/27 07:35:38;;;;;;;8.43;7.67;;;;;;;2.43;100.00;100994.44;5070157;28;20768;-74
2022/01/27 07:38:07;;;;;;;11.60;9.73;;;;;;;2.49;100.00;100998.88;5071230;28;20572;-75
2022/01/27 07:40:32;;;;;;;24.23;13.27;;;;;;;2.53;100.00;100956.88;5070269;28;20217;-75
2022/01/27 07:42:57;;;;;;;7.63;5.13;;;;;;;2.57;100.00;100941.00;5070048;28;20524;-76
2022/01/27 07:45:23;;;;;;;5.87;3.40;;;;;;;2.61;100.00;100939.47;5070023;28;20179;-74
2022/01/27 07:47:48;;;;;;;9.90;7.57;;;;;;;2.65;100.00;100935.19;5071575;28;20440;-74
2022/01/27 07:50:14;;;;;;;14.27;9.67;;;;;;;2.68;100.00;100951.72;5070049;28;20611;-74
2022/01/27 07:52:41;;;;;;;7.53;6.73;;;;;;;2.69;100.00;100949.81;5070067;28;20170;-73
2022/01/27 07:55:08;;;;;;;10.97;8.43;;;;;;;2.69;100.00;100922.84;5071063;28;20196;-73
2022/01/27 07:57:33;;;;;;;9.27;8.33;;;;;;;2.72;100.00;100919.66;5069726;28;20214;-73
2022/01/27 07:59:58;;;;;;;23.03;13.07;;;;;;;2.73;100.00;100907.78;5070891;28;20182;-74
2022/01/27 08:02:24;;;;;;;17.20;10.07;;;;;;;2.76;100.00;100920.81;5071137;28;20189;-74
2022/01/27 08:04:49;;;;;;;7.90;7.20;;;;;;;2.78;100.00;100917.88;5069534;28;20175;-73
2022/01/27 08:07:14;;;;;;;13.33;10.30;;;;;;;2.79;100.00;100909.53;5069477;28;20570;-73
2022/01/27 08:09:40;;;;;;;11.37;10.17;;;;;;;2.84;100.00;100909.56;5069641;28;20642;-74
2022/01/27 08:12:05;;;;;;;21.10;9.47;;;;;;;2.88;100.00;100915.28;5069609;28;20182;-73
2022/01/27 08:14:31;;;;;;;10.70;6.50;;;;;;;2.90;100.00;100918.56;5069602;28;20630;-73
2022/01/27 08:16:57;;;;;;;6.20;5.40;;;;;;;2.92;100.00;100901.06;5070873;28;20661;-73
2022/01/27 08:19:22;;;;;;;15.33;7.97;;;;;;;2.95;100.00;100914.06;5070671;28;20171;-73
2022/01/27 08:21:47;;;;;;;12.23;8.93;;;;;;;3.01;100.00;100906.84;5069540;28;20534;-74
2022/01/27 08:24:14;;;;;;;16.03;10.70;;;;;;;3.03;100.00;100893.09;5069953;28;20277;-74
2022/01/27 08:26:44;;;;;;;12.00;9.70;;;;;;;3.07;100.00;100915.84;5069176;28;20270;-74
2022/01/27 08:29:27;;;;;;;10.83;9.70;;;;;;;3.11;100.00;100903.47;5069349;28;20269;-74
2022/01/27 08:34:36;;;;;;;6.43;5.40;;;;;;;3.16;100.00;100892.72;5071006;28;20175;-75
2022/01/27 08:37:21;;;;;;;6.63;6.03;;;;;;;3.16;100.00;100907.03;5069399;28;20464;-74
2022/01/27 08:39:47;;;;;;;12.93;8.33;;;;;;;3.18;100.00;100929.22;5069516;28;20173;-74
2022/01/27 08:42:13;;;;;;;12.53;8.90;;;;;;;3.18;100.00;100895.97;5069322;28;20466;-74
2022/01/27 08:44:39;;;;;;;16.57;14.83;;;;;;;3.13;100.00;100894.03;5072155;28;20420;-74
2022/01/27 08:47:06;;;;;;;8.10;6.30;;;;;;;3.11;100.00;100901.56;5077196;28;20420;-74
2022/01/27 08:49:32;;;;;;;6.27;4.67;;;;;;;3.10;100.00;100888.34;5075653;28;20540;-74
2022/01/27 08:51:58;;;;;;;11.33;6.37;;;;;;;3.07;100.00;100899.63;5075461;28;20408;-74
2022/01/27 08:54:25;;;;;;;9.37;5.70;;;;;;;3.03;100.00;100877.72;5076547;28;20217;-74
2022/01/27 08:56:50;;;;;;;15.67;11.13;;;;;;;3.03;100.00;100864.22;5078916;28;20198;-74
2022/01/27 08:59:16;;;;;;;13.40;7.83;;;;;;;3.04;100.00;100886.63;5084910;28;20423;-74
2022/01/27 09:01:42;;;;;;;5.57;4.87;;;;;;;3.06;100.00;100898.00;5081647;28;20193;-75
2022/01/27 09:04:08;;;;;;;12.73;7.23;;;;;;;3.08;100.00;100895.88;5077103;28;20174;-74
2022/01/27 09:06:34;;;;;;;3.23;2.93;;;;;;;3.10;100.00;100912.63;5075276;28;20771;-74
2022/01/27 09:09:00;;;;;;;5.00;4.23;;;;;;;3.12;100.00;100884.31;5076529;28;20169;-74
2022/01/27 09:11:31;;;;;;;6.00;5.50;;;;;;;3.12;100.00;100870.00;5076226;28;20443;-74
2022/01/27 09:14:00;;;;;;;13.33;8.60;;;;;;;3.11;100.00;100871.88;5074899;28;20416;-73
2022/01/27 09:16:28;;;;;;;4.90;4.17;;;;;;;3.13;100.00;100879.72;5076656;28;20205;-74
2022/01/27 09:18:54;;;;;;;6.37;4.17;;;;;;;3.13;100.00;100887.81;5076953;28;20174;-74
2022/01/27 09:21:24;;;;;;;9.10;5.07;;;;;;;3.11;100.00;100873.75;5075703;28;20261;-74
2022/01/27 09:23:51;;;;;;;24.80;3.57;;;;;;;3.12;100.00;100859.19;5075716;28;20190;-74
2022/01/27 09:26:40;;;;;;;8.33;7.30;;;;;;;3.13;100.00;100853.53;5075284;28;20182;-74
2022/01/27 09:29:06;;;;;;;4.83;4.33;;;;;;;3.16;100.00;100860.31;5075641;28;20163;-74
2022/01/27 09:31:33;;;;;;;3.93;3.73;;;;;;;3.16;100.00;100861.13;5070514;28;20600;-73
2022/01/27 09:33:58;;;;;;;3.33;3.03;;;;;;;3.18;100.00;100856.31;5068638;28;20182;-73
2022/01/27 09:36:23;;;;;;;2.53;2.33;;;;;;;3.19;100.00;100867.94;5076904;28;20178;-74
2022/01/27 09:38:49;;;;;;;5.40;4.97;;;;;;;3.19;100.00;100881.44;5076830;28;20573;-74
2022/01/27 09:41:19;;;;;;;4.47;3.83;;;;;;;3.18;100.00;100868.97;5076540;28;20539;-74
2022/01/27 09:43:52;;;;;;;3.33;2.63;;;;;;;3.21;100.00;100890.09;5076628;28;20201;-74
2022/01/27 09:46:20;;;;;;;10.70;5.67;;;;;;;3.21;100.00;100863.91;5075240;28;20756;-74
2022/01/27 09:48:48;;;;;;;7.67;5.17;;;;;;;3.26;100.00;100861.25;5077124;28;20171;-74
2022/01/27 09:53:57;;;;;;;7.77;5.73;;;;;;;3.24;100.00;100868.81;5086180;28;20166;-74
2022/01/27 09:56:24;;;;;;;2.00;1.30;;;;;;;3.28;100.00;100866.41;5081670;28;20653;-73
2022/01/27 09:58:50;;;;;;;4.70;3.27;;;;;;;3.28;100.00;100867.22;5073692;28;20182;-74
2022/01/27 10:01:16;;;;;;;4.50;3.00;;;;;;;3.32;100.00;100861.31;5072306;28;20193;-74
2022/01/27 10:04:05;;;;;;;5.40;3.80;;;;;;;3.33;100.00;100855.69;5074229;28;20631;-74
2022/01/27 10:06:33;;;;;;;4.47;4.13;;;;;;;3.34;100.00;100835.72;5073313;28;20421;-74
2022/01/27 10:09:25;;;;;;;1.83;1.70;;;;;;;3.38;100.00;100844.94;5073830;28;20179;-74
2022/01/27 10:11:51;;;;;;;4.57;4.27;;;;;;;3.39;100.00;100843.03;5073560;28;20171;-74
2022/01/27 10:14:35;;;;;;;3.17;2.90;;;;;;;3.40;100.00;100856.28;5072035;28;20181;-74
2022/01/27 10:17:04;;;;;;;1.47;1.30;;;;;;;3.42;100.00;100840.66;5071041;28;20701;-74
2022/01/27 10:19:30;;;;;;;1.77;1.67;;;;;;;3.49;100.00;100857.47;5077354;28;20186;-74
2022/01/27 10:22:03;;;;;;;2.40;2.20;;;;;;;3.53;100.00;100844.28;5084942;28;20219;-74
2022/01/27 10:24:31;;;;;;;4.03;3.63;;;;;;;3.52;100.00;100838.06;5081151;28;20187;-75
2022/01/27 10:27:33;;;;;;;3.23;2.93;;;;;;;3.54;100.00;100846.72;5071436;28;20178;-76
2022/01/27 10:32:45;;;;;;;0.73;0.73;;;;;;;3.64;100.00;100842.50;5073098;28;20178;-73
2022/01/27 10:35:13;;;;;;;1.43;1.33;;;;;;;3.69;100.00;100845.22;5072713;28;20262;-74
2022/01/27 10:37:52;;;;;;;2.90;2.70;;;;;;;3.79;100.00;100842.63;5072631;28;20626;-74
2022/01/27 10:40:30;;;;;;;2.10;1.87;;;;;;;3.79;100.00;100826.44;5071505;28;20638;-79
2022/01/27 10:43:22;;;;;;;3.33;2.10;;;;;;;3.78;100.00;100841.00;5072699;28;20165;-72
2022/01/27 10:46:00;;;;;;;2.40;2.23;;;;;;;3.81;100.00;100835.09;5072317;28;20531;-72
2022/01/27 10:48:31;;;;;;;3.30;3.00;;;;;;;3.85;100.00;100855.94;5072522;28;20205;-72
2022/01/27 10:53:50;;;;;;;2.23;1.80;;;;;;;4.02;100.00;100847.69;5072846;28;20189;-73
2022/01/27 10:56:25;;;;;;;2.20;1.53;;;;;;;4.07;100.00;100844.22;5072324;28;20514;-72
2022/01/27 10:58:54;;;;;;;1.30;1.20;;;;;;;4.11;100.00;100850.75;5071201;28;20190;-72
2022/01/27 11:01:36;;;;;;;1.47;1.37;;;;;;;4.15;100.00;100841.03;5072267;28;20262;-73
2022/01/27 11:04:05;;;;;;;2.10;2.00;;;;;;;4.19;100.00;100825.91;5070939;28;20185;-72
2022/01/27 11:06:33;;;;;;;1.40;1.30;;;;;;;4.21;100.00;100850.84;5070861;28;20253;-72
2022/01/27 11:09:04;;;;;;;2.07;1.87;;;;;;;4.24;100.00;100833.25;5070514;28;20637;-72
2022/01/27 11:11:29;;;;;;;12.50;1.83;;;;;;;4.31;100.00;100833.84;5072088;28;20174;-72
2022/01/27 11:13:58;;;;;;;1.27;1.27;;;;;;;4.35;100.00;100824.16;5072034;28;20179;-75
2022/01/27 11:16:30;;;;;;;1.53;1.43;;;;;;;4.37;100.00;100830.13;5070391;28;20218;-75
2022/01/27 11:19:10;;;;;;;0.93;0.93;;;;;;;4.39;100.00;100819.84;5071890;28;20166;-73
2022/01/27 11:21:39;;;;;;;1.40;1.30;;;;;;;4.41;100.00;100831.22;5071873;28;20194;-74
2022/01/27 11:24:15;;;;;;;2.97;1.87;;;;;;;4.45;100.00;100840.44;5071666;28;20273;-74
2022/01/27 11:26:43;;;;;;;1.67;0.80;;;;;;;4.46;100.00;100837.47;5071479;28;20170;-73
2022/01/27 11:29:10;;;;;;;2.63;2.47;;;;;;;4.52;100.00;100848.34;5071613;28;20163;-73
2022/01/27 11:31:54;;;;;;;2.77;2.57;;;;;;;4.57;100.00;100832.94;5071493;28;20217;-72
2022/01/27 11:34:20;;;;;;;14.73;3.77;;;;;;;4.61;100.00;100833.22;5071597;28;20218;-73
2022/01/27 11:37:00;;;;;;;3.70;2.63;;;;;;;4.66;100.00;100825.16;5069967;28;20638;-72
2022/01/27 11:39:56;;;;;;;4.17;3.83;;;;;;;4.69;100.00;100830.84;5071442;28;20171;-73
2022/01/27 11:43:00;;;;;;;3.17;2.87;;;;;;;4.68;100.00;100829.22;5071649;28;20577;-73
2022/01/27 11:45:34;;;;;;;3.47;2.50;;;;;;;4.64;100.00;100820.00;5069939;28;20174;-72
2022/01/27 11:48:10;;;;;;;4.50;2.27;;;;;;;4.60;100.00;100810.75;5071307;28;20244;-73
2022/01/27 11:50:48;;;;;;;1.83;1.73;;;;;;;4.58;100.00;100825.63;5071318;28;20161;-73
2022/01/27 11:53:36;;;;;;;3.20;2.97;;;;;;;4.54;100.00;100822.63;5070117;28;20194;-73
2022/01/27 11:56:05;;;;;;;1.70;1.60;;;;;;;4.54;100.00;100822.63;5071115;28;20204;-73
2022/01/27 11:58:43;;;;;;;3.10;2.80;;;;;;;4.54;100.00;100816.41;5069760;28;20202;-73
2022/01/27 12:01:21;;;;;;;3.30;2.73;;;;;;;4.56;100.00;100831.31;5071130;28;20402;-72
2022/01/27 12:04:05;;;;;;;2.00;1.90;;;;;;;4.57;100.00;100814.00;5071392;28;20170;-72
2022/01/27 12:06:36;;;;;;;2.87;2.67;;;;;;;4.59;100.00;100813.72;5071068;28;20614;-72
2022/01/27 12:09:22;;;;;;;2.33;2.13;;;;;;;4.59;100.00;100816.44;5067638;28;20236;-76
2022/01/27 12:12:27;;;;;;;0.73;0.73;;;;;;;4.59;100.00;100803.72;5064414;28;20181;-72